Time;durP1;ratioP1;P1;durP2;ratioP2;P2;SDS_P1;SDS_P2;PMS_P1;PMS_P2;Temp;Humidity;BMP_temperature;BMP_pressure;BME280_temperature;BME280_humidity;BME280_pressure;Samples;Min_cycle;Max_cycle;Signal;HPM_P1;HPM_P2
2023/06/11 00:01:46;;;;;;;10.60;6.80;;;18.20;99.90;;;;;;5033089;28;20056;-69
2023/06/11 00:04:13;;;;;;;11.65;6.55;;;18.10;99.90;;;;;;5048563;28;20044;-69
2023/06/11 00:06:39;;;;;;;10.95;7.28;;;18.20;99.90;;;;;;5016112;28;20135;-69
2023/06/11 00:09:05;;;;;;;9.88;7.93;;;18.30;99.90;;;;;;5017501;28;20082;-69
2023/06/11 00:11:30;;;;;;;9.35;7.72;;;18.30;99.90;;;;;;5014502;28;20593;-69
2023/06/11 00:13:56;;;;;;;8.80;7.70;;;18.60;99.90;;;;;;5033731;28;20377;-69
2023/06/11 00:16:22;;;;;;;12.55;8.18;;;18.60;99.90;;;;;;5012773;28;20067;-69
2023/06/11 00:18:48;;;;;;;11.18;8.43;;;18.70;99.90;;;;;;5048598;28;20507;-68
2023/06/11 00:21:14;;;;;;;11.68;8.13;;;18.80;99.90;;;;;;5013831;28;20102;-69
2023/06/11 00:23:43;;;;;;;9.82;7.60;;;18.80;99.90;;;;;;5016797;28;20390;-70
2023/06/11 00:26:10;;;;;;;10.63;7.78;;;18.90;99.90;;;;;;5013201;28;20175;-68
2023/06/11 00:28:36;;;;;;;8.55;7.45;;;18.90;99.90;;;;;;5032150;28;20474;-69
2023/06/11 00:31:05;;;;;;;10.23;8.30;;;18.90;99.90;;;;;;5013075;28;20416;-69
2023/06/11 00:33:31;;;;;;;9.82;8.05;;;19.00;99.90;;;;;;5037784;28;20423;-69
2023/06/11 00:35:57;;;;;;;10.48;8.18;;;19.00;99.90;;;;;;5065854;28;20773;-69
2023/06/11 00:38:26;;;;;;;12.25;7.50;;;19.10;99.90;;;;;;5045567;28;20043;-69
2023/06/11 00:40:52;;;;;;;8.68;7.82;;;19.10;99.90;;;;;;5049406;28;20237;-69
2023/06/11 00:43:23;;;;;;;8.40;7.60;;;19.10;99.90;;;;;;5045906;28;20044;-69
2023/06/11 00:45:52;;;;;;;9.50;7.70;;;19.10;99.90;;;;;;5063195;28;20040;-69
2023/06/11 00:48:19;;;;;;;10.05;7.10;;;19.10;99.90;;;;;;5041843;28;20067;-69
2023/06/11 00:50:48;;;;;;;8.90;7.57;;;19.10;99.90;;;;;;5031652;28;20055;-69
2023/06/11 00:53:15;;;;;;;8.60;7.72;;;19.10;99.90;;;;;;5064110;28;20446;-69
2023/06/11 00:55:40;;;;;;;11.05;8.20;;;19.10;99.90;;;;;;5046334;28;20358;-69
2023/06/11 00:58:13;;;;;;;9.93;8.20;;;19.10;99.90;;;;;;5029344;28;20412;-69
2023/06/11 01:00:46;;;;;;;9.35;8.45;;;19.10;99.90;;;;;;5033347;28;20775;-69
2023/06/11 01:03:17;;;;;;;10.57;7.68;;;19.10;99.90;;;;;;5048924;28;20962;-69
2023/06/11 01:06:02;;;;;;;8.63;7.78;;;19.10;99.90;;;;;;5044682;28;20154;-69
2023/06/11 01:08:31;;;;;;;8.93;8.07;;;19.10;99.90;;;;;;5050048;28;20553;-69
2023/06/11 01:11:01;;;;;;;9.00;8.02;;;19.00;99.90;;;;;;5028808;28;20059;-69
2023/06/11 01:13:28;;;;;;;9.10;8.10;;;19.00;99.90;;;;;;5049189;28;20385;-69
2023/06/11 01:16:23;;;;;;;9.10;8.25;;;19.00;99.90;;;;;;5030170;28;20486;-69
2023/06/11 01:19:08;;;;;;;8.98;8.18;;;18.90;99.90;;;;;;5043679;28;21156;-69
2023/06/11 01:21:45;;;;;;;9.52;7.85;;;18.90;99.90;;;;;;5059729;28;20177;-68
2023/06/11 01:24:21;;;;;;;9.60;8.60;;;18.90;99.90;;;;;;5046618;28;20565;-68
2023/06/11 01:27:06;;;;;;;9.07;8.05;;;18.90;99.90;;;;;;5045965;28;20048;-68
2023/06/11 01:29:37;;;;;;;9.40;8.50;;;18.90;99.90;;;;;;5054585;28;20036;-69
2023/06/11 01:32:04;;;;;;;10.63;8.55;;;19.00;99.90;;;;;;5054057;28;20363;-69
2023/06/11 01:34:31;;;;;;;9.93;8.93;;;18.90;99.90;;;;;;5030649;28;20136;-69
2023/06/11 01:36:57;;;;;;;10.32;8.40;;;18.90;99.90;;;;;;5046054;28;20054;-70
2023/06/11 01:39:24;;;;;;;12.88;9.07;;;18.90;99.90;;;;;;5029968;28;20374;-70
2023/06/11 01:41:49;;;;;;;9.57;8.27;;;18.90;99.90;;;;;;5027295;28;20055;-69
2023/06/11 01:44:16;;;;;;;9.40;8.40;;;18.90;99.90;;;;;;5048317;28;20044;-70
2023/06/11 01:46:42;;;;;;;9.88;8.88;;;18.90;99.90;;;;;;5042293;28;20048;-70
2023/06/11 01:49:08;;;;;;;9.55;8.75;;;18.90;99.90;;;;;;5047787;28;20496;-70
2023/06/11 01:51:33;;;;;;;9.70;8.75;;;18.90;99.90;;;;;;5022001;28;20082;-70
2023/06/11 01:53:59;;;;;;;9.95;8.95;;;18.90;99.90;;;;;;5040875;28;20044;-70
2023/06/11 01:56:26;;;;;;;9.50;8.50;;;18.90;99.90;;;;;;5020090;28;20040;-70
2023/06/11 01:58:52;;;;;;;9.10;8.30;;;18.90;99.90;;;;;;5040909;28;20048;-70
2023/06/11 02:01:20;;;;;;;9.55;8.60;;;18.80;99.90;;;;;;5045757;28;20145;-70
2023/06/11 02:03:46;;;;;;;9.82;8.98;;;18.90;99.90;;;;;;5030081;28;20051;-70
2023/06/11 02:06:15;;;;;;;9.23;8.40;;;18.90;99.90;;;;;;5048261;28;20040;-71
2023/06/11 02:08:44;;;;;;;9.15;8.25;;;18.80;99.90;;;;;;5050388;28;20032;-70
2023/06/11 02:11:10;;;;;;;9.68;8.77;;;18.80;99.90;;;;;;5056063;28;20110;-70
2023/06/11 02:13:42;;;;;;;10.40;9.15;;;18.80;99.90;;;;;;5037330;28;20055;-70
2023/06/11 02:16:08;;;;;;;8.98;8.13;;;18.80;99.90;;;;;;5030570;28;20292;-71
2023/06/11 02:18:34;;;;;;;9.90;8.98;;;18.80;99.90;;;;;;5017342;28;20069;-70
2023/06/11 02:21:00;;;;;;;10.20;9.20;;;18.80;99.90;;;;;;5020192;28;20044;-70
2023/06/11 02:23:25;;;;;;;10.63;8.70;;;18.80;99.90;;;;;;5033621;28;20778;-70
2023/06/11 02:25:51;;;;;;;9.50;8.60;;;18.80;99.90;;;;;;5016768;28;20574;-70
2023/06/11 02:28:17;;;;;;;10.07;9.05;;;18.80;99.90;;;;;;5020833;28;20091;-70
2023/06/11 02:30:46;;;;;;;9.88;8.98;;;18.70;99.90;;;;;;5022823;28;20123;-70
2023/06/11 02:33:14;;;;;;;10.43;9.45;;;18.70;99.90;;;;;;5023316;28;20693;-70
2023/06/11 02:35:40;;;;;;;10.32;9.35;;;18.70;99.90;;;;;;5034497;28;20040;-70
2023/06/11 02:38:06;;;;;;;10.13;9.13;;;18.60;99.90;;;;;;5032370;28;20047;-71
2023/06/11 02:40:31;;;;;;;14.48;9.88;;;18.60;99.90;;;;;;5008792;28;20049;-70
2023/06/11 02:42:57;;;;;;;10.82;9.07;;;18.50;99.90;;;;;;5010296;28;20176;-70
2023/06/11 02:45:23;;;;;;;10.95;9.95;;;18.50;99.90;;;;;;5023731;28;20553;-70
2023/06/11 02:47:55;;;;;;;10.48;9.45;;;18.40;99.90;;;;;;5021269;28;20040;-70
2023/06/11 02:50:21;;;;;;;10.05;9.05;;;18.50;99.90;;;;;;5026065;28;20509;-70
2023/06/11 02:52:47;;;;;;;11.00;9.63;;;18.40;99.90;;;;;;5042528;28;20040;-70
2023/06/11 02:55:13;;;;;;;11.18;10.05;;;18.30;99.90;;;;;;5060325;28;20477;-70
2023/06/11 02:57:38;;;;;;;11.48;9.73;;;18.30;99.90;;;;;;5043686;28;20519;-70
2023/06/11 03:00:06;;;;;;;10.43;9.45;;;18.30;99.90;;;;;;5061011;28;20060;-71
2023/06/11 03:02:31;;;;;;;10.77;9.68;;;18.30;99.90;;;;;;5056752;28;20288;-70
2023/06/11 03:04:57;;;;;;;10.75;9.60;;;18.30;99.90;;;;;;5077909;28;20059;-70
2023/06/11 03:07:23;;;;;;;10.05;9.10;;;18.20;99.90;;;;;;5029916;28;20071;-69
2023/06/11 03:09:49;;;;;;;10.38;9.45;;;18.20;99.90;;;;;;5044843;28;20036;-70
2023/06/11 03:12:15;;;;;;;10.57;9.57;;;18.20;99.90;;;;;;5027409;28;20123;-69
2023/06/11 03:14:44;;;;;;;11.27;10.27;;;18.10;99.90;;;;;;5030228;28;20127;-69
2023/06/11 03:17:10;;;;;;;11.30;9.88;;;18.00;99.90;;;;;;5045620;28;20040;-69
2023/06/11 03:19:36;;;;;;;10.63;9.63;;;18.00;99.90;;;;;;5030304;28;20043;-69
2023/06/11 03:22:02;;;;;;;10.70;9.77;;;17.90;99.90;;;;;;5057018;28;20500;-69
2023/06/11 03:24:28;;;;;;;10.75;9.70;;;17.90;99.90;;;;;;5062843;28;20073;-69
2023/06/11 03:26:56;;;;;;;10.45;9.55;;;17.90;99.90;;;;;;5057866;28;20252;-69
2023/06/11 03:29:31;;;;;;;11.23;10.13;;;17.90;99.90;;;;;;5061784;28;20073;-70
2023/06/11 03:31:57;;;;;;;10.63;9.73;;;17.90;99.90;;;;;;5042873;28;20110;-70
2023/06/11 03:34:23;;;;;;;11.52;10.43;;;17.90;99.90;;;;;;5059126;28;20118;-70
2023/06/11 03:36:48;;;;;;;11.30;10.20;;;17.80;99.90;;;;;;5041076;28;20048;-70
2023/06/11 03:39:16;;;;;;;11.45;10.43;;;17.80;99.90;;;;;;5078807;28;20405;-71
2023/06/11 03:41:42;;;;;;;11.82;10.73;;;17.70;99.90;;;;;;5045630;28;20885;-70
2023/06/11 03:44:08;;;;;;;12.50;11.30;;;17.70;99.90;;;;;;5062524;28;20044;-70
2023/06/11 03:46:34;;;;;;;11.27;10.35;;;17.70;99.90;;;;;;5050313;28;20044;-70
2023/06/11 03:49:00;;;;;;;12.30;11.20;;;17.60;99.90;;;;;;5062359;28;20504;-70
2023/06/11 03:51:26;;;;;;;11.73;10.73;;;17.60;99.90;;;;;;5042956;28;20561;-70
2023/06/11 03:53:52;;;;;;;12.43;11.20;;;17.60;99.90;;;;;;5056587;28;20056;-70
2023/06/11 03:56:17;;;;;;;12.35;11.25;;;17.60;99.90;;;;;;5043446;28;20036;-70
2023/06/11 03:58:43;;;;;;;12.60;11.40;;;17.60;99.90;;;;;;5061894;28;20032;-70
2023/06/11 04:01:09;;;;;;;12.35;11.18;;;17.60;99.90;;;;;;5057099;28;20052;-70
2023/06/11 04:03:35;;;;;;;12.95;11.82;;;17.70;99.90;;;;;;5061555;28;20598;-70
2023/06/11 04:06:04;;;;;;;12.18;10.98;;;17.80;99.90;;;;;;5041596;28;20483;-71
2023/06/11 04:08:29;;;;;;;12.18;11.18;;;17.80;99.90;;;;;;5046758;28;20123;-70
2023/06/11 04:10:55;;;;;;;12.60;11.48;;;17.80;99.90;;;;;;5061168;28;20497;-70
2023/06/11 04:13:21;;;;;;;12.80;11.70;;;17.90;99.90;;;;;;5060116;28;20044;-70
2023/06/11 04:15:47;;;;;;;12.68;11.48;;;17.90;99.90;;;;;;5027466;28;20083;-71
2023/06/11 04:18:13;;;;;;;12.57;11.48;;;17.90;99.90;;;;;;5039380;28;20052;-70
2023/06/11 04:20:38;;;;;;;13.32;12.15;;;17.90;99.90;;;;;;5046603;28;20056;-70
2023/06/11 04:23:07;;;;;;;12.45;11.25;;;18.00;99.90;;;;;;5056088;28;20130;-70
2023/06/11 04:25:36;;;;;;;13.70;12.40;;;18.00;99.90;;;;;;5051104;28;20051;-71
2023/06/11 04:28:02;;;;;;;13.07;11.90;;;18.00;99.90;;;;;;5039250;28;20831;-70
2023/06/11 04:30:28;;;;;;;13.38;11.90;;;18.00;99.90;;;;;;5044247;28;20453;-69
2023/06/11 04:32:54;;;;;;;12.75;11.65;;;18.00;99.90;;;;;;5041812;28;20063;-69
2023/06/11 04:35:23;;;;;;;12.93;11.73;;;18.10;99.90;;;;;;5058609;28;20067;-69
2023/06/11 04:37:49;;;;;;;13.18;11.88;;;18.10;99.90;;;;;;5037436;28;20040;-70
2023/06/11 04:40:17;;;;;;;12.65;11.55;;;18.10;99.90;;;;;;5055726;28;20044;-69
2023/06/11 04:42:44;;;;;;;12.65;11.45;;;18.10;99.90;;;;;;5059891;28;20048;-70
2023/06/11 04:45:10;;;;;;;12.23;11.20;;;18.20;99.90;;;;;;5042947;28;20288;-70
2023/06/11 04:47:36;;;;;;;13.43;12.13;;;18.30;99.90;;;;;;5057222;28;20111;-70
2023/06/11 04:50:04;;;;;;;11.88;10.88;;;18.30;99.90;;;;;;5040972;28;20055;-70
2023/06/11 04:52:38;;;;;;;12.63;11.40;;;18.40;99.90;;;;;;5036987;28;20371;-70
2023/06/11 04:55:09;;;;;;;13.30;12.10;;;18.40;99.90;;;;;;5045530;28;20067;-70
2023/06/11 04:57:45;;;;;;;13.45;12.25;;;18.50;99.90;;;;;;5072704;28;20514;-70
2023/06/11 05:00:13;;;;;;;12.80;11.63;;;18.50;99.90;;;;;;5059617;28;20146;-70
2023/06/11 05:02:44;;;;;;;13.20;11.98;;;18.60;99.90;;;;;;5057099;28;20055;-70
2023/06/11 05:05:10;;;;;;;13.90;12.60;;;18.60;99.90;;;;;;5041546;28;20058;-70
2023/06/11 05:07:36;;;;;;;13.02;11.93;;;18.60;99.90;;;;;;5039714;28;20088;-70
2023/06/11 05:10:02;;;;;;;13.13;11.93;;;18.70;99.90;;;;;;5039363;28;20052;-71
2023/06/11 05:12:28;;;;;;;12.30;11.13;;;18.80;99.90;;;;;;5053915;28;20507;-70
2023/06/11 05:14:54;;;;;;;13.52;12.40;;;18.80;99.90;;;;;;5055025;28;20126;-70
2023/06/11 05:17:20;;;;;;;12.98;11.82;;;18.90;99.90;;;;;;5056116;28;20399;-70
2023/06/11 05:19:46;;;;;;;13.30;12.20;;;18.90;99.90;;;;;;5043269;28;20089;-70
2023/06/11 05:22:12;;;;;;;12.93;11.68;;;19.00;99.90;;;;;;5044209;28;20045;-70
2023/06/11 05:24:41;;;;;;;12.98;11.77;;;19.00;99.90;;;;;;5056057;28;20504;-70
2023/06/11 05:27:09;;;;;;;12.73;11.45;;;19.10;99.90;;;;;;5057278;28;20040;-70
2023/06/11 05:29:37;;;;;;;12.80;11.68;;;19.20;99.90;;;;;;5038860;28;20484;-70
2023/06/11 05:32:05;;;;;;;13.23;12.02;;;19.20;99.90;;;;;;5056273;28;20403;-70
2023/06/11 05:34:33;;;;;;;12.30;11.30;;;19.30;99.90;;;;;;5068324;28;20752;-70
2023/06/11 05:36:58;;;;;;;13.13;11.85;;;19.40;99.90;;;;;;5040564;28;20590;-70
2023/06/11 05:39:24;;;;;;;12.63;11.52;;;19.40;99.90;;;;;;5054773;28;20037;-70
2023/06/11 05:41:50;;;;;;;12.25;11.07;;;19.40;99.90;;;;;;5055643;28;20471;-70
2023/06/11 05:44:17;;;;;;;13.77;12.55;;;19.50;99.90;;;;;;5041764;28;20057;-70
2023/06/11 05:46:43;;;;;;;13.60;12.30;;;19.60;99.90;;;;;;5055438;28;20653;-70
2023/06/11 05:49:08;;;;;;;12.82;11.75;;;19.60;99.90;;;;;;5056179;28;20028;-70
2023/06/11 05:51:35;;;;;;;12.18;10.98;;;19.70;99.90;;;;;;5023376;28;20130;-71
2023/06/11 05:54:01;;;;;;;13.88;12.57;;;19.80;99.90;;;;;;5038583;28;20040;-70
2023/06/11 05:56:27;;;;;;;13.27;12.00;;;19.80;99.90;;;;;;5071187;28;20447;-70
2023/06/11 05:58:53;;;;;;;13.02;11.73;;;19.90;99.90;;;;;;5056491;28;20132;-70
2023/06/11 06:01:21;;;;;;;13.25;11.95;;;20.00;99.90;;;;;;5057728;28;20060;-70
2023/06/11 06:03:47;;;;;;;12.65;11.63;;;20.00;99.90;;;;;;5042292;28;20070;-70
2023/06/11 06:06:13;;;;;;;13.98;12.45;;;20.00;99.90;;;;;;5042297;28;20040;-70
2023/06/11 06:08:39;;;;;;;12.93;11.63;;;20.10;99.90;;;;;;5028060;28;20095;-70
2023/06/11 06:11:04;;;;;;;12.80;11.60;;;20.20;99.90;;;;;;5044100;28;20040;-70
2023/06/11 06:13:30;;;;;;;14.48;12.88;;;20.20;99.90;;;;;;5059578;28;20044;-70
2023/06/11 06:15:56;;;;;;;12.07;11.07;;;20.30;99.90;;;;;;5058872;28;20056;-70
2023/06/11 06:18:23;;;;;;;13.07;11.80;;;20.30;99.90;;;;;;5061016;28;20063;-70
2023/06/11 06:20:48;;;;;;;13.25;12.02;;;20.40;99.90;;;;;;5045169;28;20358;-71
2023/06/11 06:23:14;;;;;;;12.65;11.35;;;20.40;99.90;;;;;;5059476;28;20126;-70
2023/06/11 06:25:41;;;;;;;12.30;11.20;;;20.50;99.90;;;;;;5059415;28;20089;-70
2023/06/11 06:28:07;;;;;;;12.27;11.15;;;20.60;99.90;;;;;;5041829;28;20048;-71
2023/06/11 06:30:33;;;;;;;11.85;10.85;;;20.60;99.90;;;;;;5058220;28;20036;-71
2023/06/11 06:32:59;;;;;;;13.10;11.65;;;20.70;99.90;;;;;;5061266;28;20036;-70
2023/06/11 06:35:25;;;;;;;13.18;11.98;;;20.80;99.90;;;;;;5056656;28;20044;-71
2023/06/11 06:37:51;;;;;;;12.18;11.05;;;20.90;99.90;;;;;;5042427;28;20048;-70
2023/06/11 06:40:17;;;;;;;11.35;10.32;;;21.00;99.90;;;;;;5074465;28;20047;-71
2023/06/11 06:42:43;;;;;;;13.35;12.13;;;21.00;99.90;;;;;;5044597;28;20075;-70
2023/06/11 06:45:09;;;;;;;11.57;10.55;;;21.10;99.90;;;;;;5026850;28;20404;-69
2023/06/11 06:47:35;;;;;;;12.35;11.05;;;21.30;99.90;;;;;;5043892;28;20055;-70
2023/06/11 06:50:01;;;;;;;11.82;10.77;;;21.30;99.90;;;;;;5030768;28;20044;-70
2023/06/11 06:52:27;;;;;;;13.00;11.80;;;21.40;99.90;;;;;;5044870;28;20044;-69
2023/06/11 06:54:53;;;;;;;11.98;10.88;;;21.60;99.90;;;;;;5041044;28;20127;-70
2023/06/11 06:57:19;;;;;;;11.85;10.63;;;21.70;99.90;;;;;;5044533;28;20132;-70
2023/06/11 06:59:45;;;;;;;11.98;10.90;;;21.80;99.90;;;;;;5060192;28;20066;-70
2023/06/11 07:02:10;;;;;;;12.20;11.02;;;21.90;99.90;;;;;;5044585;28;20075;-70
2023/06/11 07:04:36;;;;;;;11.60;10.50;;;22.00;99.90;;;;;;5025921;28;20046;-70
2023/06/11 07:07:02;;;;;;;12.35;11.15;;;22.20;99.90;;;;;;5043397;28;20070;-71
2023/06/11 07:09:28;;;;;;;11.68;10.52;;;22.20;99.90;;;;;;5048534;28;20051;-70
2023/06/11 07:11:54;;;;;;;11.95;10.95;;;22.30;99.90;;;;;;5058929;28;20047;-71
2023/06/11 07:14:20;;;;;;;11.50;10.48;;;22.50;99.90;;;;;;5028753;28;20075;-70
2023/06/11 07:16:46;;;;;;;12.05;10.60;;;22.60;99.90;;;;;;5043386;28;20129;-70
2023/06/11 07:19:12;;;;;;;11.35;10.15;;;22.70;99.90;;;;;;5042756;28;20148;-70
2023/06/11 07:21:37;;;;;;;11.55;10.52;;;22.80;99.90;;;;;;5073996;28;20130;-70
2023/06/11 07:24:07;;;;;;;11.88;10.77;;;23.00;99.90;;;;;;5057307;28;20044;-70
2023/06/11 07:26:33;;;;;;;10.50;9.65;;;23.10;99.90;;;;;;5057647;28;20050;-70
2023/06/11 07:28:59;;;;;;;11.52;10.43;;;23.20;99.90;;;;;;5040865;28;20058;-70
2023/06/11 07:31:26;;;;;;;12.40;11.25;;;23.30;99.90;;;;;;5056333;28;20067;-70
2023/06/11 07:33:58;;;;;;;11.98;10.82;;;23.40;99.90;;;;;;5060018;28;20462;-70
2023/06/11 07:36:23;;;;;;;10.60;9.60;;;23.50;99.90;;;;;;5056920;28;20147;-70
2023/06/11 07:38:49;;;;;;;12.50;11.25;;;23.60;99.90;;;;;;5039953;28;20419;-70
2023/06/11 07:41:15;;;;;;;11.68;10.57;;;23.70;99.90;;;;;;5057491;28;20055;-70
2023/06/11 07:43:44;;;;;;;10.48;9.50;;;23.80;99.90;;;;;;5054370;28;20096;-70
2023/06/11 07:46:10;;;;;;;11.18;9.85;;;24.00;99.90;;;;;;5070638;28;20047;-71
2023/06/11 07:48:41;;;;;;;10.55;9.65;;;24.10;99.90;;;;;;5055819;28;20044;-70
2023/06/11 07:51:09;;;;;;;10.77;9.68;;;24.20;99.90;;;;;;5027626;28;20089;-70
2023/06/11 07:53:38;;;;;;;10.68;9.27;;;24.30;99.70;;;;;;5023331;28;20118;-71
2023/06/11 07:56:04;;;;;;;10.63;8.90;;;24.40;99.90;;;;;;5039336;28;20041;-71
2023/06/11 07:58:30;;;;;;;10.23;9.27;;;24.60;99.60;;;;;;5040066;28;20036;-71
2023/06/11 08:00:56;;;;;;;9.63;8.73;;;24.70;98.60;;;;;;5020254;28;20516;-70
2023/06/11 08:03:21;;;;;;;11.50;9.68;;;24.80;98.30;;;;;;5057758;28;20555;-70
2023/06/11 08:05:47;;;;;;;10.45;9.55;;;24.90;97.70;;;;;;5076196;28;20136;-70
2023/06/11 08:08:13;;;;;;;10.25;8.95;;;25.10;98.00;;;;;;5052350;28;20044;-71
2023/06/11 08:10:39;;;;;;;11.60;8.38;;;25.20;97.50;;;;;;5025595;28;20075;-70
2023/06/11 08:13:05;;;;;;;9.63;8.60;;;25.30;96.80;;;;;;5041652;28;20564;-71
2023/06/11 08:15:30;;;;;;;9.75;8.60;;;25.40;95.70;;;;;;5040533;28;20048;-70
2023/06/11 08:17:56;;;;;;;9.68;8.30;;;25.50;95.60;;;;;;5057361;28;20051;-71
2023/06/11 08:20:22;;;;;;;9.48;8.57;;;25.60;95.50;;;;;;5041183;28;20404;-71
2023/06/11 08:22:48;;;;;;;9.52;8.52;;;25.80;95.10;;;;;;5043901;28;20044;-71
2023/06/11 08:25:14;;;;;;;9.25;8.32;;;25.90;94.90;;;;;;5056533;28;20446;-70
2023/06/11 08:27:40;;;;;;;9.63;8.73;;;26.00;94.10;;;;;;5042334;28;20044;-70
2023/06/11 08:30:06;;;;;;;9.30;8.40;;;26.10;93.00;;;;;;5024116;28;20044;-71
2023/06/11 08:32:32;;;;;;;9.98;9.07;;;26.10;92.90;;;;;;5058880;28;20119;-70
2023/06/11 08:34:58;;;;;;;9.40;8.48;;;26.20;92.30;;;;;;5054216;28;20190;-71
2023/06/11 08:37:24;;;;;;;9.38;8.57;;;26.20;92.50;;;;;;5041796;28;20039;-70
2023/06/11 08:39:54;;;;;;;9.43;8.38;;;26.30;92.40;;;;;;5057269;28;20055;-70
2023/06/11 08:42:19;;;;;;;9.27;8.48;;;26.40;92.50;;;;;;5025145;28;20059;-70
2023/06/11 08:44:45;;;;;;;10.23;8.95;;;26.50;91.60;;;;;;5076262;28;20361;-70
2023/06/11 08:47:12;;;;;;;8.80;7.90;;;26.60;91.50;;;;;;5055791;28;20044;-70
2023/06/11 08:49:42;;;;;;;9.60;8.70;;;26.70;90.70;;;;;;5029096;28;20226;-70
2023/06/11 08:52:09;;;;;;;9.52;8.73;;;26.80;89.20;;;;;;5057608;28;20051;-71
2023/06/11 08:54:35;;;;;;;10.80;8.50;;;26.80;90.00;;;;;;5040425;28;20055;-70
2023/06/11 08:57:02;;;;;;;10.00;9.05;;;26.90;90.60;;;;;;5059031;28;20052;-70
2023/06/11 08:59:28;;;;;;;10.15;8.50;;;27.00;90.40;;;;;;5055466;28;20068;-70
2023/06/11 09:01:54;;;;;;;8.77;7.90;;;27.20;90.30;;;;;;5039811;28;20078;-70
2023/06/11 09:04:23;;;;;;;9.48;8.57;;;27.30;90.00;;;;;;5054909;28;20209;-70
2023/06/11 09:06:56;;;;;;;9.48;8.55;;;27.30;88.20;;;;;;5056991;28;20124;-70
2023/06/11 09:09:22;;;;;;;8.73;7.82;;;27.40;89.30;;;;;;5056589;28;20552;-70
2023/06/11 09:11:48;;;;;;;9.27;8.35;;;27.40;87.20;;;;;;5053611;28;20039;-70
2023/06/11 09:14:14;;;;;;;9.88;8.88;;;27.50;86.80;;;;;;5040628;28;20036;-70
2023/06/11 09:16:45;;;;;;;8.98;8.10;;;27.60;87.40;;;;;;5043291;28;20039;-71
2023/06/11 09:19:20;;;;;;;9.00;8.20;;;27.70;86.10;;;;;;5053940;28;20515;-70
2023/06/11 09:21:54;;;;;;;9.10;8.23;;;27.70;86.30;;;;;;5023009;28;20048;-70
2023/06/11 09:24:21;;;;;;;9.02;8.23;;;27.80;87.50;;;;;;5055114;28;20050;-69
2023/06/11 09:26:57;;;;;;;9.32;7.60;;;27.90;85.70;;;;;;5058043;28;20110;-70
2023/06/11 09:29:25;;;;;;;9.23;8.30;;;28.00;84.80;;;;;;5072982;28;20052;-70
2023/06/11 09:32:08;;;;;;;9.82;7.75;;;28.10;83.00;;;;;;5042751;28;20082;-70
2023/06/11 09:34:33;;;;;;;8.88;7.80;;;28.30;81.50;;;;;;5040869;28;20440;-70
2023/06/11 09:37:03;;;;;;;8.85;7.90;;;28.30;81.80;;;;;;5043643;28;20044;-70
2023/06/11 09:39:30;;;;;;;8.48;7.60;;;28.40;81.30;;;;;;5061536;28;20032;-70
2023/06/11 09:41:56;;;;;;;7.97;7.18;;;28.50;80.40;;;;;;5060451;28;20045;-70
2023/06/11 09:44:26;;;;;;;8.30;7.53;;;28.50;79.70;;;;;;5079572;28;20036;-70
2023/06/11 09:46:52;;;;;;;8.85;8.05;;;28.70;80.00;;;;;;5033100;28;20056;-70
2023/06/11 09:49:18;;;;;;;8.70;7.80;;;28.70;77.90;;;;;;5055225;28;20044;-70
2023/06/11 09:51:44;;;;;;;10.85;7.60;;;28.80;78.50;;;;;;5062967;28;20052;-70
2023/06/11 09:54:15;;;;;;;8.00;7.25;;;28.80;76.90;;;;;;5046263;28;20143;-70
2023/06/11 09:56:42;;;;;;;7.78;6.97;;;28.90;76.30;;;;;;5046910;28;20044;-70
2023/06/11 09:59:14;;;;;;;6.88;6.18;;;29.00;75.50;;;;;;5064145;28;20397;-70
2023/06/11 10:01:47;;;;;;;7.30;6.63;;;29.00;75.00;;;;;;5060306;28;20686;-70
2023/06/11 10:04:15;;;;;;;8.70;6.80;;;29.10;73.50;;;;;;5057546;28;20056;-70
2023/06/11 10:06:45;;;;;;;7.73;6.80;;;29.10;73.10;;;;;;5046494;28;20059;-70
2023/06/11 10:09:14;;;;;;;7.43;6.72;;;29.10;72.30;;;;;;5056887;28;20059;-70
2023/06/11 10:11:40;;;;;;;9.05;7.22;;;29.20;73.30;;;;;;5041270;28;20137;-70
2023/06/11 10:14:15;;;;;;;9.68;7.30;;;29.40;73.30;;;;;;5078145;28;20721;-69
2023/06/11 10:16:51;;;;;;;10.13;6.95;;;29.40;72.40;;;;;;5033255;28;20049;-69
2023/06/11 10:19:18;;;;;;;8.27;6.65;;;29.60;72.30;;;;;;5035386;28;20052;-69
2023/06/11 10:21:55;;;;;;;7.57;6.60;;;29.70;71.10;;;;;;5024803;28;20064;-70
2023/06/11 10:24:22;;;;;;;7.65;6.95;;;29.70;71.10;;;;;;5027291;28;20512;-69
2023/06/11 10:27:07;;;;;;;8.10;7.30;;;29.70;70.90;;;;;;5041785;28;20048;-69
2023/06/11 10:29:37;;;;;;;7.25;6.50;;;29.80;70.20;;;;;;5039118;28;20063;-70
2023/06/11 10:32:13;;;;;;;9.52;6.78;;;29.90;69.70;;;;;;5041321;28;20064;-70
2023/06/11 10:34:39;;;;;;;8.30;6.88;;;29.90;70.00;;;;;;5038188;28;20220;-70
2023/06/11 10:37:06;;;;;;;9.38;6.50;;;29.90;69.70;;;;;;5022619;28;20526;-70
2023/06/11 10:39:31;;;;;;;7.32;6.63;;;29.90;69.60;;;;;;5040602;28;20036;-70
2023/06/11 10:42:02;;;;;;;7.80;7.10;;;29.90;67.10;;;;;;5039358;28;20052;-70
2023/06/11 10:44:32;;;;;;;7.18;6.13;;;30.00;66.80;;;;;;5025896;28;20044;-70
2023/06/11 10:47:00;;;;;;;7.10;6.32;;;30.00;66.80;;;;;;5040862;28;20131;-70
2023/06/11 10:49:30;;;;;;;6.57;6.00;;;30.10;67.50;;;;;;5022592;28;20041;-70
2023/06/11 10:51:59;;;;;;;6.80;6.20;;;30.20;66.40;;;;;;5041020;28;20047;-70
2023/06/11 10:54:26;;;;;;;7.78;6.72;;;30.30;64.80;;;;;;5039583;28;20047;-74
2023/06/11 10:56:53;;;;;;;7.32;6.53;;;30.30;65.30;;;;;;5023811;28;20049;-74
2023/06/11 10:59:23;;;;;;;9.48;6.10;;;30.40;64.30;;;;;;5023766;28;20967;-73
2023/06/11 11:01:52;;;;;;;7.45;6.13;;;30.40;63.40;;;;;;5042623;28;20114;-74
2023/06/11 11:04:18;;;;;;;7.40;6.70;;;30.50;62.50;;;;;;5024713;28;20131;-75
2023/06/11 11:06:44;;;;;;;6.80;5.75;;;30.60;61.40;;;;;;5043341;28;20135;-74
2023/06/11 11:09:11;;;;;;;8.75;6.13;;;30.60;61.50;;;;;;5037180;28;20051;-74
2023/06/11 11:11:40;;;;;;;8.05;6.32;;;30.60;61.10;;;;;;5019590;28;20037;-75
2023/06/11 11:14:05;;;;;;;9.10;5.60;;;30.70;61.10;;;;;;5039387;28;20585;-74
2023/06/11 11:16:31;;;;;;;7.40;6.63;;;30.80;60.70;;;;;;5033416;28;20389;-74
2023/06/11 11:18:57;;;;;;;6.90;6.20;;;30.90;59.80;;;;;;5042223;28;20476;-74
2023/06/11 11:21:30;;;;;;;7.28;6.07;;;30.90;60.20;;;;;;5056989;28;20122;-74
2023/06/11 11:23:56;;;;;;;7.93;6.32;;;30.90;59.10;;;;;;5034590;28;20582;-74
2023/06/11 11:26:22;;;;;;;7.47;6.22;;;30.80;58.90;;;;;;5044408;28;20419;-74
2023/06/11 11:28:48;;;;;;;7.35;6.13;;;30.70;59.10;;;;;;5041353;28;20044;-74
2023/06/11 11:31:17;;;;;;;7.70;6.20;;;30.70;59.20;;;;;;5041753;28;20097;-74
2023/06/11 11:33:45;;;;;;;6.45;5.85;;;30.70;57.90;;;;;;5062392;28;20193;-74
2023/06/11 11:36:14;;;;;;;6.65;5.75;;;30.80;57.90;;;;;;5028558;28;20522;-74
2023/06/11 11:38:40;;;;;;;7.57;6.05;;;30.80;56.00;;;;;;5060017;28;20044;-74
2023/06/11 11:41:09;;;;;;;6.95;6.25;;;30.80;56.30;;;;;;5062768;28;20503;-74
2023/06/11 11:43:37;;;;;;;11.63;6.80;;;30.90;56.90;;;;;;5041988;28;20446;-74
2023/06/11 11:46:24;;;;;;;6.95;6.25;;;31.00;57.20;;;;;;5061400;28;20044;-74
2023/06/11 11:48:55;;;;;;;7.63;6.70;;;30.90;54.90;;;;;;5060911;28;20044;-74
2023/06/11 11:51:23;;;;;;;7.03;6.32;;;30.80;53.90;;;;;;5041672;28;20136;-74
2023/06/11 11:53:51;;;;;;;8.23;6.33;;;30.70;55.80;;;;;;5063396;28;20044;-74
2023/06/11 11:56:17;;;;;;;8.38;6.63;;;30.90;56.10;;;;;;5041531;28;20051;-75
2023/06/11 11:58:44;;;;;;;7.60;6.90;;;30.90;56.80;;;;;;5061138;28;20093;-74
2023/06/11 12:01:30;;;;;;;8.65;6.45;;;31.10;56.00;;;;;;5059369;28;20056;-73
2023/06/11 12:04:03;;;;;;;7.28;6.45;;;31.20;55.00;;;;;;5027599;28;20444;-74
2023/06/11 12:06:30;;;;;;;8.10;6.03;;;31.20;55.00;;;;;;5059737;28;20066;-73
2023/06/11 12:08:56;;;;;;;7.78;6.80;;;31.20;55.40;;;;;;5058283;28;20546;-70
2023/06/11 12:11:22;;;;;;;7.13;6.43;;;31.30;54.70;;;;;;5078116;28;20036;-69
2023/06/11 12:13:47;;;;;;;6.88;6.00;;;31.20;53.30;;;;;;5057459;28;20577;-69
2023/06/11 12:16:14;;;;;;;10.00;6.43;;;31.20;54.70;;;;;;5062194;28;20138;-70
2023/06/11 12:18:40;;;;;;;7.07;6.20;;;31.20;54.00;;;;;;5056771;28;20895;-70
2023/06/11 12:21:07;;;;;;;7.85;6.80;;;31.30;53.10;;;;;;5061069;28;20058;-69
2023/06/11 12:23:33;;;;;;;9.38;6.88;;;31.40;53.00;;;;;;5028151;28;20403;-69
2023/06/11 12:26:01;;;;;;;8.00;7.03;;;31.50;52.20;;;;;;5060039;28;20063;-71
2023/06/11 12:28:27;;;;;;;8.48;6.57;;;31.50;52.40;;;;;;5042893;28;20551;-69
2023/06/11 12:30:53;;;;;;;8.15;5.97;;;31.50;52.50;;;;;;5058053;28;20102;-70
2023/06/11 12:33:18;;;;;;;7.90;6.60;;;31.50;52.50;;;;;;5042628;28;20074;-70
2023/06/11 12:35:44;;;;;;;8.25;6.60;;;31.50;54.60;;;;;;5060230;28;20071;-70
2023/06/11 12:38:10;;;;;;;7.20;6.38;;;31.50;54.00;;;;;;5040835;28;20051;-69
2023/06/11 12:40:37;;;;;;;9.30;7.95;;;31.60;53.20;;;;;;5043753;28;20036;-69